sensor_id;sensor_type;location;lat;lon;timestamp;P1;durP1;ratioP1;P2;durP2;ratioP2
20713;SDS011;10518;50.742;4.226;2023-03-14T00:00:58;0.57;;;0.57;;
20713;SDS011;10518;50.742;4.226;2023-03-14T00:03:24;0.87;;;0.87;;
20713;SDS011;10518;50.742;4.226;2023-03-14T00:05:50;0.77;;;0.77;;
20713;SDS011;10518;50.742;4.226;2023-03-14T00:08:15;0.60;;;0.60;;
20713;SDS011;10518;50.742;4.226;2023-03-14T00:10:42;0.37;;;0.37;;
20713;SDS011;10518;50.742;4.226;2023-03-14T00:13:08;0.30;;;0.30;;
20713;SDS011;10518;50.742;4.226;2023-03-14T00:15:34;0.30;;;0.30;;
20713;SDS011;10518;50.742;4.226;2023-03-14T00:17:59;0.30;;;0.30;;
20713;SDS011;10518;50.742;4.226;2023-03-14T00:20:25;0.40;;;0.40;;
20713;SDS011;10518;50.742;4.226;2023-03-14T00:22:51;0.30;;;0.30;;
20713;SDS011;10518;50.742;4.226;2023-03-14T00:25:17;0.30;;;0.30;;
20713;SDS011;10518;50.742;4.226;2023-03-14T00:27:43;1.60;;;1.17;;
20713;SDS011;10518;50.742;4.226;2023-03-14T00:30:08;0.40;;;0.40;;
20713;SDS011;10518;50.742;4.226;2023-03-14T00:32:36;0.47;;;0.47;;
20713;SDS011;10518;50.742;4.226;2023-03-14T00:35:02;0.97;;;0.97;;
20713;SDS011;10518;50.742;4.226;2023-03-14T00:37:28;5.63;;;0.87;;
20713;SDS011;10518;50.742;4.226;2023-03-14T00:39:54;0.30;;;0.30;;
20713;SDS011;10518;50.742;4.226;2023-03-14T00:42:19;0.73;;;0.73;;
20713;SDS011;10518;50.742;4.226;2023-03-14T00:44:45;0.30;;;0.30;;
20713;SDS011;10518;50.742;4.226;2023-03-14T00:47:11;0.40;;;0.40;;
20713;SDS011;10518;50.742;4.226;2023-03-14T00:49:36;2.13;;;1.13;;
20713;SDS011;10518;50.742;4.226;2023-03-14T00:52:02;0.30;;;0.30;;
20713;SDS011;10518;50.742;4.226;2023-03-14T00:54:28;0.30;;;0.30;;
20713;SDS011;10518;50.742;4.226;2023-03-14T00:56:53;0.57;;;0.57;;
20713;SDS011;10518;50.742;4.226;2023-03-14T00:59:19;0.30;;;0.30;;
20713;SDS011;10518;50.742;4.226;2023-03-14T01:01:45;20.50;;;2.03;;
20713;SDS011;10518;50.742;4.226;2023-03-14T01:04:10;2.37;;;0.40;;
20713;SDS011;10518;50.742;4.226;2023-03-14T01:06:36;1.07;;;1.07;;
20713;SDS011;10518;50.742;4.226;2023-03-14T01:09:02;0.30;;;0.30;;
20713;SDS011;10518;50.742;4.226;2023-03-14T01:11:32;0.93;;;0.87;;
20713;SDS011;10518;50.742;4.226;2023-03-14T01:13:59;0.27;;;0.27;;
20713;SDS011;10518;50.742;4.226;2023-03-14T01:16:26;0.97;;;0.97;;
20713;SDS011;10518;50.742;4.226;2023-03-14T01:18:53;0.50;;;0.50;;
20713;SDS011;10518;50.742;4.226;2023-03-14T01:21:20;0.73;;;0.70;;
20713;SDS011;10518;50.742;4.226;2023-03-14T01:23:48;0.30;;;0.30;;
20713;SDS011;10518;50.742;4.226;2023-03-14T01:26:16;0.37;;;0.37;;
20713;SDS011;10518;50.742;4.226;2023-03-14T01:28:44;0.37;;;0.37;;
20713;SDS011;10518;50.742;4.226;2023-03-14T01:31:11;1.17;;;0.80;;
20713;SDS011;10518;50.742;4.226;2023-03-14T01:33:37;0.40;;;0.40;;
20713;SDS011;10518;50.742;4.226;2023-03-14T01:36:04;0.30;;;0.30;;
20713;SDS011;10518;50.742;4.226;2023-03-14T01:38:31;0.20;;;0.20;;
20713;SDS011;10518;50.742;4.226;2023-03-14T01:40:58;0.30;;;0.30;;
20713;SDS011;10518;50.742;4.226;2023-03-14T01:43:24;0.50;;;0.50;;
20713;SDS011;10518;50.742;4.226;2023-03-14T01:48:40;0.43;;;0.43;;
20713;SDS011;10518;50.742;4.226;2023-03-14T01:51:11;0.30;;;0.30;;
20713;SDS011;10518;50.742;4.226;2023-03-14T01:53:44;0.43;;;0.43;;
20713;SDS011;10518;50.742;4.226;2023-03-14T01:56:11;0.30;;;0.30;;
20713;SDS011;10518;50.742;4.226;2023-03-14T01:58:39;0.93;;;0.63;;
20713;SDS011;10518;50.742;4.226;2023-03-14T02:01:08;0.30;;;0.30;;
20713;SDS011;10518;50.742;4.226;2023-03-14T02:03:36;0.40;;;0.40;;
20713;SDS011;10518;50.742;4.226;2023-03-14T02:06:09;0.40;;;0.40;;
20713;SDS011;10518;50.742;4.226;2023-03-14T02:08:36;0.30;;;0.30;;
20713;SDS011;10518;50.742;4.226;2023-03-14T02:11:04;1.40;;;1.40;;
20713;SDS011;10518;50.742;4.226;2023-03-14T02:13:32;0.40;;;0.40;;
20713;SDS011;10518;50.742;4.226;2023-03-14T02:15:58;0.40;;;0.40;;
20713;SDS011;10518;50.742;4.226;2023-03-14T02:18:23;0.40;;;0.40;;
20713;SDS011;10518;50.742;4.226;2023-03-14T02:20:56;0.40;;;0.40;;
20713;SDS011;10518;50.742;4.226;2023-03-14T02:23:43;0.40;;;0.40;;
20713;SDS011;10518;50.742;4.226;2023-03-14T02:26:15;0.50;;;0.50;;
20713;SDS011;10518;50.742;4.226;2023-03-14T02:28:52;0.50;;;0.50;;
20713;SDS011;10518;50.742;4.226;2023-03-14T02:31:18;0.60;;;0.60;;
20713;SDS011;10518;50.742;4.226;2023-03-14T02:33:46;0.50;;;0.50;;
20713;SDS011;10518;50.742;4.226;2023-03-14T02:36:13;2.20;;;1.67;;
20713;SDS011;10518;50.742;4.226;2023-03-14T02:38:41;0.50;;;0.50;;
20713;SDS011;10518;50.742;4.226;2023-03-14T02:41:20;0.80;;;0.80;;
20713;SDS011;10518;50.742;4.226;2023-03-14T02:43:45;0.50;;;0.50;;
20713;SDS011;10518;50.742;4.226;2023-03-14T02:46:16;0.80;;;0.80;;
20713;SDS011;10518;50.742;4.226;2023-03-14T02:51:13;0.60;;;0.60;;
20713;SDS011;10518;50.742;4.226;2023-03-14T02:53:39;0.83;;;0.83;;
20713;SDS011;10518;50.742;4.226;2023-03-14T02:56:06;4.10;;;3.90;;
20713;SDS011;10518;50.742;4.226;2023-03-14T02:58:32;4.00;;;3.90;;
20713;SDS011;10518;50.742;4.226;2023-03-14T03:00:58;2.97;;;2.87;;
20713;SDS011;10518;50.742;4.226;2023-03-14T03:03:24;3.17;;;3.07;;
20713;SDS011;10518;50.742;4.226;2023-03-14T03:05:50;3.43;;;3.33;;
20713;SDS011;10518;50.742;4.226;2023-03-14T03:08:17;2.70;;;2.60;;
20713;SDS011;10518;50.742;4.226;2023-03-14T03:10:44;1.70;;;1.60;;
20713;SDS011;10518;50.742;4.226;2023-03-14T03:13:10;3.00;;;2.90;;
20713;SDS011;10518;50.742;4.226;2023-03-14T03:15:35;3.70;;;3.50;;
20713;SDS011;10518;50.742;4.226;2023-03-14T03:18:01;4.93;;;4.63;;
20713;SDS011;10518;50.742;4.226;2023-03-14T03:20:26;1.80;;;1.77;;
20713;SDS011;10518;50.742;4.226;2023-03-14T03:22:52;2.40;;;2.30;;
20713;SDS011;10518;50.742;4.226;2023-03-14T03:25:18;2.40;;;2.30;;
20713;SDS011;10518;50.742;4.226;2023-03-14T03:27:43;1.87;;;1.87;;
20713;SDS011;10518;50.742;4.226;2023-03-14T03:30:09;0.70;;;0.70;;
20713;SDS011;10518;50.742;4.226;2023-03-14T03:32:35;0.93;;;0.93;;
20713;SDS011;10518;50.742;4.226;2023-03-14T03:35:02;1.00;;;1.00;;
20713;SDS011;10518;50.742;4.226;2023-03-14T03:37:29;0.90;;;0.90;;
20713;SDS011;10518;50.742;4.226;2023-03-14T03:39:56;1.10;;;1.10;;
20713;SDS011;10518;50.742;4.226;2023-03-14T03:42:21;1.00;;;1.00;;
20713;SDS011;10518;50.742;4.226;2023-03-14T03:44:47;1.23;;;1.17;;
20713;SDS011;10518;50.742;4.226;2023-03-14T03:47:13;1.20;;;1.17;;
20713;SDS011;10518;50.742;4.226;2023-03-14T03:49:39;8.50;;;8.00;;
20713;SDS011;10518;50.742;4.226;2023-03-14T03:52:04;9.30;;;8.70;;
20713;SDS011;10518;50.742;4.226;2023-03-14T03:54:30;10.70;;;10.20;;
20713;SDS011;10518;50.742;4.226;2023-03-14T03:56:55;8.07;;;7.77;;
20713;SDS011;10518;50.742;4.226;2023-03-14T03:59:21;10.60;;;10.10;;
20713;SDS011;10518;50.742;4.226;2023-03-14T04:01:47;8.00;;;7.70;;
20713;SDS011;10518;50.742;4.226;2023-03-14T04:04:12;5.77;;;5.57;;
20713;SDS011;10518;50.742;4.226;2023-03-14T04:06:39;7.63;;;7.23;;
20713;SDS011;10518;50.742;4.226;2023-03-14T04:09:05;8.13;;;7.73;;
20713;SDS011;10518;50.742;4.226;2023-03-14T04:11:30;7.93;;;7.63;;
20713;SDS011;10518;50.742;4.226;2023-03-14T04:13:56;7.43;;;7.13;;
20713;SDS011;10518;50.742;4.226;2023-03-14T04:16:23;8.90;;;8.50;;
20713;SDS011;10518;50.742;4.226;2023-03-14T04:18:50;8.57;;;8.17;;
20713;SDS011;10518;50.742;4.226;2023-03-14T04:21:17;7.90;;;7.60;;
20713;SDS011;10518;50.742;4.226;2023-03-14T04:23:42;7.63;;;7.33;;
20713;SDS011;10518;50.742;4.226;2023-03-14T04:26:08;6.93;;;6.63;;
20713;SDS011;10518;50.742;4.226;2023-03-14T04:28:34;7.40;;;7.10;;
20713;SDS011;10518;50.742;4.226;2023-03-14T04:31:10;7.57;;;7.27;;
20713;SDS011;10518;50.742;4.226;2023-03-14T04:33:41;6.50;;;6.20;;
20713;SDS011;10518;50.742;4.226;2023-03-14T04:36:06;7.27;;;6.97;;
20713;SDS011;10518;50.742;4.226;2023-03-14T04:38:33;6.80;;;6.50;;
20713;SDS011;10518;50.742;4.226;2023-03-14T04:40:59;7.80;;;7.50;;
20713;SDS011;10518;50.742;4.226;2023-03-14T04:43:25;6.70;;;6.40;;
20713;SDS011;10518;50.742;4.226;2023-03-14T04:45:55;5.47;;;5.27;;
20713;SDS011;10518;50.742;4.226;2023-03-14T04:48:21;5.70;;;5.50;;
20713;SDS011;10518;50.742;4.226;2023-03-14T04:50:47;6.10;;;5.80;;
20713;SDS011;10518;50.742;4.226;2023-03-14T04:53:14;4.77;;;4.57;;
20713;SDS011;10518;50.742;4.226;2023-03-14T04:55:41;4.67;;;4.47;;
20713;SDS011;10518;50.742;4.226;2023-03-14T04:58:06;4.80;;;4.60;;
20713;SDS011;10518;50.742;4.226;2023-03-14T05:00:32;4.50;;;4.30;;
20713;SDS011;10518;50.742;4.226;2023-03-14T05:02:58;4.63;;;4.43;;
20713;SDS011;10518;50.742;4.226;2023-03-14T05:05:23;4.67;;;4.47;;
20713;SDS011;10518;50.742;4.226;2023-03-14T05:07:49;5.10;;;4.90;;
20713;SDS011;10518;50.742;4.226;2023-03-14T05:10:15;4.30;;;4.10;;
20713;SDS011;10518;50.742;4.226;2023-03-14T05:12:41;4.30;;;4.10;;
20713;SDS011;10518;50.742;4.226;2023-03-14T05:15:06;4.20;;;4.00;;
20713;SDS011;10518;50.742;4.226;2023-03-14T05:17:33;5.30;;;5.10;;
20713;SDS011;10518;50.742;4.226;2023-03-14T05:19:59;3.90;;;3.80;;
20713;SDS011;10518;50.742;4.226;2023-03-14T05:22:24;4.00;;;3.90;;
20713;SDS011;10518;50.742;4.226;2023-03-14T05:24:50;3.70;;;3.60;;
20713;SDS011;10518;50.742;4.226;2023-03-14T05:27:16;3.50;;;3.40;;
20713;SDS011;10518;50.742;4.226;2023-03-14T05:29:41;3.93;;;3.73;;
20713;SDS011;10518;50.742;4.226;2023-03-14T05:32:07;3.50;;;3.40;;
20713;SDS011;10518;50.742;4.226;2023-03-14T05:34:33;3.40;;;3.30;;
20713;SDS011;10518;50.742;4.226;2023-03-14T05:36:58;3.20;;;3.10;;
20713;SDS011;10518;50.742;4.226;2023-03-14T05:39:24;3.00;;;2.90;;
20713;SDS011;10518;50.742;4.226;2023-03-14T05:41:50;3.30;;;3.20;;
20713;SDS011;10518;50.742;4.226;2023-03-14T05:44:16;3.70;;;3.60;;
20713;SDS011;10518;50.742;4.226;2023-03-14T05:46:41;3.93;;;3.73;;
20713;SDS011;10518;50.742;4.226;2023-03-14T05:49:07;3.60;;;3.50;;
20713;SDS011;10518;50.742;4.226;2023-03-14T05:51:33;3.63;;;3.53;;
20713;SDS011;10518;50.742;4.226;2023-03-14T05:53:58;3.17;;;3.07;;
20713;SDS011;10518;50.742;4.226;2023-03-14T05:56:24;3.50;;;3.40;;
20713;SDS011;10518;50.742;4.226;2023-03-14T05:58:50;3.37;;;3.27;;
20713;SDS011;10518;50.742;4.226;2023-03-14T06:01:15;3.50;;;3.40;;
20713;SDS011;10518;50.742;4.226;2023-03-14T06:03:41;4.00;;;3.80;;
20713;SDS011;10518;50.742;4.226;2023-03-14T06:06:06;3.87;;;3.70;;
20713;SDS011;10518;50.742;4.226;2023-03-14T06:08:32;4.20;;;4.00;;
20713;SDS011;10518;50.742;4.226;2023-03-14T06:10:59;3.53;;;3.43;;
20713;SDS011;10518;50.742;4.226;2023-03-14T06:13:27;3.73;;;3.53;;
20713;SDS011;10518;50.742;4.226;2023-03-14T06:15:52;2.97;;;2.87;;
20713;SDS011;10518;50.742;4.226;2023-03-14T06:18:18;2.80;;;2.67;;
20713;SDS011;10518;50.742;4.226;2023-03-14T06:20:44;3.30;;;3.10;;
20713;SDS011;10518;50.742;4.226;2023-03-14T06:23:09;3.40;;;3.20;;
20713;SDS011;10518;50.742;4.226;2023-03-14T06:25:35;2.70;;;2.60;;
20713;SDS011;10518;50.742;4.226;2023-03-14T06:28:01;3.00;;;2.90;;
20713;SDS011;10518;50.742;4.226;2023-03-14T06:30:27;2.67;;;2.57;;
20713;SDS011;10518;50.742;4.226;2023-03-14T06:32:53;2.60;;;2.50;;
20713;SDS011;10518;50.742;4.226;2023-03-14T06:35:20;2.50;;;2.40;;
20713;SDS011;10518;50.742;4.226;2023-03-14T06:37:46;3.17;;;3.07;;
20713;SDS011;10518;50.742;4.226;2023-03-14T06:40:12;2.87;;;2.77;;
20713;SDS011;10518;50.742;4.226;2023-03-14T06:42:42;2.50;;;2.40;;
20713;SDS011;10518;50.742;4.226;2023-03-14T06:45:08;1.00;;;1.00;;
20713;SDS011;10518;50.742;4.226;2023-03-14T06:47:34;0.90;;;0.90;;
20713;SDS011;10518;50.742;4.226;2023-03-14T06:50:00;0.80;;;0.80;;
20713;SDS011;10518;50.742;4.226;2023-03-14T06:52:25;0.90;;;0.90;;
20713;SDS011;10518;50.742;4.226;2023-03-14T06:54:51;1.30;;;1.30;;
20713;SDS011;10518;50.742;4.226;2023-03-14T06:57:17;1.10;;;1.10;;
20713;SDS011;10518;50.742;4.226;2023-03-14T06:59:42;1.87;;;1.77;;
20713;SDS011;10518;50.742;4.226;2023-03-14T07:02:11;1.40;;;1.40;;
20713;SDS011;10518;50.742;4.226;2023-03-14T07:04:38;1.30;;;1.30;;
20713;SDS011;10518;50.742;4.226;2023-03-14T07:07:03;1.20;;;1.20;;
20713;SDS011;10518;50.742;4.226;2023-03-14T07:09:29;1.10;;;1.10;;
20713;SDS011;10518;50.742;4.226;2023-03-14T07:11:55;1.10;;;1.10;;
20713;SDS011;10518;50.742;4.226;2023-03-14T07:14:21;1.10;;;1.10;;
20713;SDS011;10518;50.742;4.226;2023-03-14T07:16:46;1.23;;;1.23;;
20713;SDS011;10518;50.742;4.226;2023-03-14T07:19:12;1.30;;;1.30;;
20713;SDS011;10518;50.742;4.226;2023-03-14T07:21:37;1.30;;;1.30;;
20713;SDS011;10518;50.742;4.226;2023-03-14T07:24:03;1.30;;;1.30;;
20713;SDS011;10518;50.742;4.226;2023-03-14T07:26:30;1.60;;;1.60;;
20713;SDS011;10518;50.742;4.226;2023-03-14T07:28:56;1.90;;;1.80;;
20713;SDS011;10518;50.742;4.226;2023-03-14T07:31:21;1.03;;;1.03;;
20713;SDS011;10518;50.742;4.226;2023-03-14T07:33:47;1.20;;;1.20;;
20713;SDS011;10518;50.742;4.226;2023-03-14T07:36:12;0.80;;;0.80;;
20713;SDS011;10518;50.742;4.226;2023-03-14T07:38:38;1.00;;;1.00;;
20713;SDS011;10518;50.742;4.226;2023-03-14T07:41:04;0.90;;;0.90;;
20713;SDS011;10518;50.742;4.226;2023-03-14T07:43:31;0.90;;;0.90;;
20713;SDS011;10518;50.742;4.226;2023-03-14T07:45:57;0.90;;;0.90;;
20713;SDS011;10518;50.742;4.226;2023-03-14T07:48:23;0.90;;;0.90;;
20713;SDS011;10518;50.742;4.226;2023-03-14T07:50:50;1.00;;;1.00;;
20713;SDS011;10518;50.742;4.226;2023-03-14T07:53:17;1.33;;;1.23;;
20713;SDS011;10518;50.742;4.226;2023-03-14T07:55:43;1.10;;;1.10;;
20713;SDS011;10518;50.742;4.226;2023-03-14T07:58:09;1.50;;;1.50;;
20713;SDS011;10518;50.742;4.226;2023-03-14T08:00:34;1.40;;;1.30;;
20713;SDS011;10518;50.742;4.226;2023-03-14T08:03:00;2.83;;;2.23;;
20713;SDS011;10518;50.742;4.226;2023-03-14T08:05:26;2.03;;;1.67;;
20713;SDS011;10518;50.742;4.226;2023-03-14T08:07:51;2.03;;;1.93;;
20713;SDS011;10518;50.742;4.226;2023-03-14T08:10:17;1.60;;;1.53;;
20713;SDS011;10518;50.742;4.226;2023-03-14T08:12:50;1.10;;;1.10;;
20713;SDS011;10518;50.742;4.226;2023-03-14T08:15:19;0.90;;;0.90;;
20713;SDS011;10518;50.742;4.226;2023-03-14T08:17:44;2.13;;;2.03;;
20713;SDS011;10518;50.742;4.226;2023-03-14T08:20:10;1.87;;;1.77;;
20713;SDS011;10518;50.742;4.226;2023-03-14T08:22:37;1.67;;;1.57;;
20713;SDS011;10518;50.742;4.226;2023-03-14T08:25:03;1.20;;;1.20;;
20713;SDS011;10518;50.742;4.226;2023-03-14T08:27:29;1.30;;;1.30;;
20713;SDS011;10518;50.742;4.226;2023-03-14T08:29:55;1.30;;;1.20;;
20713;SDS011;10518;50.742;4.226;2023-03-14T08:32:20;1.30;;;1.30;;
20713;SDS011;10518;50.742;4.226;2023-03-14T08:34:48;1.00;;;1.00;;
20713;SDS011;10518;50.742;4.226;2023-03-14T08:37:14;0.70;;;0.70;;
20713;SDS011;10518;50.742;4.226;2023-03-14T08:39:39;0.93;;;0.93;;
20713;SDS011;10518;50.742;4.226;2023-03-14T08:42:05;0.80;;;0.80;;
20713;SDS011;10518;50.742;4.226;2023-03-14T08:44:34;1.20;;;1.20;;
20713;SDS011;10518;50.742;4.226;2023-03-14T08:46:59;0.60;;;0.60;;
20713;SDS011;10518;50.742;4.226;2023-03-14T08:49:25;0.60;;;0.60;;
20713;SDS011;10518;50.742;4.226;2023-03-14T08:51:50;0.80;;;0.80;;
20713;SDS011;10518;50.742;4.226;2023-03-14T08:54:16;0.70;;;0.70;;
20713;SDS011;10518;50.742;4.226;2023-03-14T08:56:42;0.70;;;0.70;;
20713;SDS011;10518;50.742;4.226;2023-03-14T08:59:07;0.60;;;0.60;;
20713;SDS011;10518;50.742;4.226;2023-03-14T09:01:33;0.50;;;0.50;;
20713;SDS011;10518;50.742;4.226;2023-03-14T09:03:58;0.67;;;0.67;;
20713;SDS011;10518;50.742;4.226;2023-03-14T09:06:24;0.50;;;0.50;;
20713;SDS011;10518;50.742;4.226;2023-03-14T09:08:50;1.33;;;1.20;;
20713;SDS011;10518;50.742;4.226;2023-03-14T09:11:15;0.50;;;0.50;;
20713;SDS011;10518;50.742;4.226;2023-03-14T09:13:42;0.57;;;0.57;;
20713;SDS011;10518;50.742;4.226;2023-03-14T09:16:08;0.60;;;0.60;;
20713;SDS011;10518;50.742;4.226;2023-03-14T09:18:34;0.50;;;0.50;;
20713;SDS011;10518;50.742;4.226;2023-03-14T09:21:06;0.50;;;0.50;;
20713;SDS011;10518;50.742;4.226;2023-03-14T09:23:31;0.50;;;0.50;;
20713;SDS011;10518;50.742;4.226;2023-03-14T09:25:58;3.50;;;1.13;;
20713;SDS011;10518;50.742;4.226;2023-03-14T09:28:24;1.53;;;1.17;;
20713;SDS011;10518;50.742;4.226;2023-03-14T09:30:50;5.33;;;1.30;;
20713;SDS011;10518;50.742;4.226;2023-03-14T09:33:19;0.50;;;0.50;;
20713;SDS011;10518;50.742;4.226;2023-03-14T09:35:45;0.50;;;0.50;;
20713;SDS011;10518;50.742;4.226;2023-03-14T09:38:10;0.70;;;0.70;;
20713;SDS011;10518;50.742;4.226;2023-03-14T09:40:36;0.40;;;0.40;;
20713;SDS011;10518;50.742;4.226;2023-03-14T09:43:03;0.50;;;0.50;;
20713;SDS011;10518;50.742;4.226;2023-03-14T09:45:33;0.40;;;0.40;;
20713;SDS011;10518;50.742;4.226;2023-03-14T09:48:02;0.30;;;0.30;;
20713;SDS011;10518;50.742;4.226;2023-03-14T09:50:31;0.60;;;0.60;;
20713;SDS011;10518;50.742;4.226;2023-03-14T09:53:03;0.40;;;0.40;;
20713;SDS011;10518;50.742;4.226;2023-03-14T09:55:32;0.40;;;0.40;;
20713;SDS011;10518;50.742;4.226;2023-03-14T09:58:00;0.53;;;0.40;;
20713;SDS011;10518;50.742;4.226;2023-03-14T10:00:31;0.60;;;0.60;;
20713;SDS011;10518;50.742;4.226;2023-03-14T10:05:38;0.30;;;0.30;;
20713;SDS011;10518;50.742;4.226;2023-03-14T10:08:06;0.57;;;0.57;;
20713;SDS011;10518;50.742;4.226;2023-03-14T10:10:34;1.47;;;1.40;;
20713;SDS011;10518;50.742;4.226;2023-03-14T10:15:54;0.87;;;0.87;;
20713;SDS011;10518;50.742;4.226;2023-03-14T10:18:23;0.40;;;0.40;;
20713;SDS011;10518;50.742;4.226;2023-03-14T10:20:49;0.53;;;0.50;;
20713;SDS011;10518;50.742;4.226;2023-03-14T10:23:29;0.30;;;0.30;;
20713;SDS011;10518;50.742;4.226;2023-03-14T10:28:41;0.57;;;0.57;;
20713;SDS011;10518;50.742;4.226;2023-03-14T10:31:08;0.50;;;0.50;;
20713;SDS011;10518;50.742;4.226;2023-03-14T10:33:35;0.40;;;0.40;;
20713;SDS011;10518;50.742;4.226;2023-03-14T10:36:06;0.40;;;0.40;;
20713;SDS011;10518;50.742;4.226;2023-03-14T10:38:46;0.40;;;0.40;;
20713;SDS011;10518;50.742;4.226;2023-03-14T10:41:30;0.50;;;0.50;;
20713;SDS011;10518;50.742;4.226;2023-03-14T10:43:57;0.40;;;0.40;;
20713;SDS011;10518;50.742;4.226;2023-03-14T10:46:25;0.80;;;0.80;;
20713;SDS011;10518;50.742;4.226;2023-03-14T10:48:54;1.07;;;0.57;;
20713;SDS011;10518;50.742;4.226;2023-03-14T10:51:24;0.70;;;0.70;;
20713;SDS011;10518;50.742;4.226;2023-03-14T10:53:56;0.40;;;0.40;;
20713;SDS011;10518;50.742;4.226;2023-03-14T10:56:25;0.77;;;0.77;;
20713;SDS011;10518;50.742;4.226;2023-03-14T10:58:53;0.60;;;0.60;;
20713;SDS011;10518;50.742;4.226;2023-03-14T11:12:01;2.97;;;1.70;;
20713;SDS011;10518;50.742;4.226;2023-03-14T11:14:52;0.67;;;0.67;;
20713;SDS011;10518;50.742;4.226;2023-03-14T11:18:10;2.40;;;1.37;;
20713;SDS011;10518;50.742;4.226;2023-03-14T11:23:16;0.40;;;0.40;;
20713;SDS011;10518;50.742;4.226;2023-03-14T11:28:38;0.40;;;0.40;;
20713;SDS011;10518;50.742;4.226;2023-03-14T11:34:27;0.40;;;0.40;;
20713;SDS011;10518;50.742;4.226;2023-03-14T11:39:53;0.40;;;0.40;;
20713;SDS011;10518;50.742;4.226;2023-03-14T11:42:24;0.60;;;0.60;;
20713;SDS011;10518;50.742;4.226;2023-03-14T11:44:51;0.70;;;0.70;;
20713;SDS011;10518;50.742;4.226;2023-03-14T11:47:22;0.53;;;0.53;;
20713;SDS011;10518;50.742;4.226;2023-03-14T11:52:41;0.50;;;0.50;;
20713;SDS011;10518;50.742;4.226;2023-03-14T11:55:19;0.60;;;0.60;;
20713;SDS011;10518;50.742;4.226;2023-03-14T11:57:53;0.97;;;0.97;;
20713;SDS011;10518;50.742;4.226;2023-03-14T12:00:25;0.50;;;0.50;;
20713;SDS011;10518;50.742;4.226;2023-03-14T12:05:34;0.70;;;0.70;;
20713;SDS011;10518;50.742;4.226;2023-03-14T12:11:18;0.50;;;0.50;;
20713;SDS011;10518;50.742;4.226;2023-03-14T12:13:53;0.70;;;0.70;;
20713;SDS011;10518;50.742;4.226;2023-03-14T12:18:51;0.70;;;0.70;;
20713;SDS011;10518;50.742;4.226;2023-03-14T12:21:18;0.70;;;0.70;;
20713;SDS011;10518;50.742;4.226;2023-03-14T12:23:48;0.50;;;0.50;;
20713;SDS011;10518;50.742;4.226;2023-03-14T12:26:22;1.13;;;1.00;;
20713;SDS011;10518;50.742;4.226;2023-03-14T12:34:00;0.60;;;0.60;;
20713;SDS011;10518;50.742;4.226;2023-03-14T12:44:48;0.60;;;0.60;;
20713;SDS011;10518;50.742;4.226;2023-03-14T12:49:46;0.50;;;0.50;;
20713;SDS011;10518;50.742;4.226;2023-03-14T12:52:21;0.60;;;0.60;;
20713;SDS011;10518;50.742;4.226;2023-03-14T12:54:56;0.50;;;0.50;;
20713;SDS011;10518;50.742;4.226;2023-03-14T12:57:32;0.60;;;0.60;;
20713;SDS011;10518;50.742;4.226;2023-03-14T13:02:44;0.50;;;0.50;;
20713;SDS011;10518;50.742;4.226;2023-03-14T13:12:51;0.80;;;0.80;;
20713;SDS011;10518;50.742;4.226;2023-03-14T13:15:22;0.70;;;0.70;;
20713;SDS011;10518;50.742;4.226;2023-03-14T13:18:40;0.60;;;0.60;;
20713;SDS011;10518;50.742;4.226;2023-03-14T13:21:28;0.60;;;0.60;;
20713;SDS011;10518;50.742;4.226;2023-03-14T13:26:22;0.60;;;0.60;;
20713;SDS011;10518;50.742;4.226;2023-03-14T13:28:51;0.67;;;0.67;;
20713;SDS011;10518;50.742;4.226;2023-03-14T13:31:24;0.60;;;0.60;;
20713;SDS011;10518;50.742;4.226;2023-03-14T13:34:00;0.77;;;0.77;;
20713;SDS011;10518;50.742;4.226;2023-03-14T13:36:30;0.50;;;0.50;;
20713;SDS011;10518;50.742;4.226;2023-03-14T13:38:56;0.50;;;0.50;;
20713;SDS011;10518;50.742;4.226;2023-03-14T13:41:26;0.50;;;0.50;;
20713;SDS011;10518;50.742;4.226;2023-03-14T13:44:00;0.50;;;0.50;;
20713;SDS011;10518;50.742;4.226;2023-03-14T13:46:30;0.60;;;0.60;;
20713;SDS011;10518;50.742;4.226;2023-03-14T13:49:00;0.60;;;0.60;;
20713;SDS011;10518;50.742;4.226;2023-03-14T13:51:28;0.60;;;0.60;;
20713;SDS011;10518;50.742;4.226;2023-03-14T13:53:57;0.70;;;0.70;;
20713;SDS011;10518;50.742;4.226;2023-03-14T13:56:25;0.63;;;0.63;;
20713;SDS011;10518;50.742;4.226;2023-03-14T13:58:53;0.50;;;0.50;;
20713;SDS011;10518;50.742;4.226;2023-03-14T14:01:20;0.50;;;0.50;;
20713;SDS011;10518;50.742;4.226;2023-03-14T14:03:50;0.53;;;0.53;;
20713;SDS011;10518;50.742;4.226;2023-03-14T14:06:34;0.43;;;0.43;;
20713;SDS011;10518;50.742;4.226;2023-03-14T14:09:24;0.80;;;0.80;;
20713;SDS011;10518;50.742;4.226;2023-03-14T14:11:48;0.40;;;0.40;;
20713;SDS011;10518;50.742;4.226;2023-03-14T14:16:56;0.40;;;0.40;;
20713;SDS011;10518;50.742;4.226;2023-03-14T14:19:24;0.40;;;0.40;;
20713;SDS011;10518;50.742;4.226;2023-03-14T14:21:52;0.40;;;0.40;;
20713;SDS011;10518;50.742;4.226;2023-03-14T14:24:18;0.40;;;0.40;;
20713;SDS011;10518;50.742;4.226;2023-03-14T14:26:51;0.30;;;0.30;;
20713;SDS011;10518;50.742;4.226;2023-03-14T14:29:29;0.70;;;0.70;;
20713;SDS011;10518;50.742;4.226;2023-03-14T14:32:00;4.83;;;1.23;;
20713;SDS011;10518;50.742;4.226;2023-03-14T14:34:40;0.97;;;0.97;;
20713;SDS011;10518;50.742;4.226;2023-03-14T14:37:41;0.40;;;0.40;;
20713;SDS011;10518;50.742;4.226;2023-03-14T14:40:09;0.40;;;0.40;;
20713;SDS011;10518;50.742;4.226;2023-03-14T14:42:43;0.50;;;0.50;;
20713;SDS011;10518;50.742;4.226;2023-03-14T14:45:12;0.30;;;0.30;;
20713;SDS011;10518;50.742;4.226;2023-03-14T14:47:55;3.10;;;2.07;;
20713;SDS011;10518;50.742;4.226;2023-03-14T14:53:23;0.70;;;0.70;;
20713;SDS011;10518;50.742;4.226;2023-03-14T14:56:18;0.30;;;0.30;;
20713;SDS011;10518;50.742;4.226;2023-03-14T14:58:47;0.50;;;0.50;;
20713;SDS011;10518;50.742;4.226;2023-03-14T15:01:20;0.30;;;0.30;;
20713;SDS011;10518;50.742;4.226;2023-03-14T15:03:51;0.40;;;0.40;;
20713;SDS011;10518;50.742;4.226;2023-03-14T15:06:19;0.73;;;0.73;;
20713;SDS011;10518;50.742;4.226;2023-03-14T15:08:46;0.57;;;0.40;;
20713;SDS011;10518;50.742;4.226;2023-03-14T15:11:17;0.43;;;0.43;;
20713;SDS011;10518;50.742;4.226;2023-03-14T15:13:45;0.30;;;0.30;;
20713;SDS011;10518;50.742;4.226;2023-03-14T15:16:11;0.30;;;0.30;;
20713;SDS011;10518;50.742;4.226;2023-03-14T15:18:38;0.23;;;0.23;;
20713;SDS011;10518;50.742;4.226;2023-03-14T15:21:04;0.80;;;0.80;;
20713;SDS011;10518;50.742;4.226;2023-03-14T15:23:30;0.30;;;0.30;;
20713;SDS011;10518;50.742;4.226;2023-03-14T15:25:56;0.30;;;0.30;;
20713;SDS011;10518;50.742;4.226;2023-03-14T15:28:25;0.30;;;0.30;;
20713;SDS011;10518;50.742;4.226;2023-03-14T15:30:54;0.30;;;0.30;;
20713;SDS011;10518;50.742;4.226;2023-03-14T15:33:23;0.30;;;0.30;;
20713;SDS011;10518;50.742;4.226;2023-03-14T15:35:50;0.30;;;0.30;;
20713;SDS011;10518;50.742;4.226;2023-03-14T15:38:17;0.30;;;0.30;;
20713;SDS011;10518;50.742;4.226;2023-03-14T15:40:47;0.70;;;0.70;;
20713;SDS011;10518;50.742;4.226;2023-03-14T15:43:14;0.50;;;0.37;;
20713;SDS011;10518;50.742;4.226;2023-03-14T15:45:39;0.30;;;0.30;;
20713;SDS011;10518;50.742;4.226;2023-03-14T15:48:06;0.30;;;0.30;;
20713;SDS011;10518;50.742;4.226;2023-03-14T15:50:38;0.30;;;0.30;;
20713;SDS011;10518;50.742;4.226;2023-03-14T15:53:04;0.47;;;0.33;;
20713;SDS011;10518;50.742;4.226;2023-03-14T15:55:30;0.40;;;0.40;;
20713;SDS011;10518;50.742;4.226;2023-03-14T15:57:55;1.43;;;0.83;;
20713;SDS011;10518;50.742;4.226;2023-03-14T16:00:21;0.30;;;0.30;;
20713;SDS011;10518;50.742;4.226;2023-03-14T16:02:47;0.57;;;0.40;;
20713;SDS011;10518;50.742;4.226;2023-03-14T16:05:13;0.30;;;0.30;;
20713;SDS011;10518;50.742;4.226;2023-03-14T16:07:46;0.50;;;0.50;;
20713;SDS011;10518;50.742;4.226;2023-03-14T16:10:12;0.30;;;0.30;;
20713;SDS011;10518;50.742;4.226;2023-03-14T16:12:39;0.30;;;0.30;;
20713;SDS011;10518;50.742;4.226;2023-03-14T16:15:05;0.40;;;0.40;;